sensor_id;sensor_type;location;lat;lon;timestamp;P1;durP1;ratioP1;P2;durP2;ratioP2
81026;SDS011;70506;49.320;8.446;2024-01-06T00:00:17;2.43;;;0.77;;
81026;SDS011;70506;49.320;8.446;2024-01-06T00:02:42;2.15;;;0.63;;
81026;SDS011;70506;49.320;8.446;2024-01-06T00:05:07;1.90;;;0.90;;
81026;SDS011;70506;49.320;8.446;2024-01-06T00:07:33;2.25;;;0.68;;
81026;SDS011;70506;49.320;8.446;2024-01-06T00:09:58;2.83;;;0.52;;
81026;SDS011;70506;49.320;8.446;2024-01-06T00:12:23;2.93;;;0.70;;
81026;SDS011;70506;49.320;8.446;2024-01-06T00:14:49;2.23;;;0.90;;
81026;SDS011;70506;49.320;8.446;2024-01-06T00:17:15;1.77;;;0.63;;
81026;SDS011;70506;49.320;8.446;2024-01-06T00:22:06;2.97;;;0.47;;
81026;SDS011;70506;49.320;8.446;2024-01-06T00:24:31;1.42;;;0.80;;
81026;SDS011;70506;49.320;8.446;2024-01-06T00:26:56;1.73;;;0.73;;
81026;SDS011;70506;49.320;8.446;2024-01-06T00:29:22;1.70;;;0.77;;
81026;SDS011;70506;49.320;8.446;2024-01-06T00:31:47;6.78;;;1.15;;
81026;SDS011;70506;49.320;8.446;2024-01-06T00:34:13;2.30;;;0.63;;
81026;SDS011;70506;49.320;8.446;2024-01-06T00:36:38;2.53;;;0.80;;
81026;SDS011;70506;49.320;8.446;2024-01-06T00:39:03;1.57;;;0.87;;
81026;SDS011;70506;49.320;8.446;2024-01-06T00:41:29;0.70;;;0.57;;
81026;SDS011;70506;49.320;8.446;2024-01-06T00:43:54;2.53;;;1.35;;
81026;SDS011;70506;49.320;8.446;2024-01-06T00:46:19;3.47;;;0.60;;
81026;SDS011;70506;49.320;8.446;2024-01-06T00:48:45;1.27;;;0.73;;
81026;SDS011;70506;49.320;8.446;2024-01-06T00:51:10;5.03;;;1.07;;
81026;SDS011;70506;49.320;8.446;2024-01-06T00:53:35;2.13;;;0.90;;
81026;SDS011;70506;49.320;8.446;2024-01-06T00:56:00;1.47;;;0.80;;
81026;SDS011;70506;49.320;8.446;2024-01-06T00:58:26;2.63;;;0.73;;
81026;SDS011;70506;49.320;8.446;2024-01-06T01:00:51;1.73;;;0.90;;
81026;SDS011;70506;49.320;8.446;2024-01-06T01:03:16;1.80;;;0.80;;
81026;SDS011;70506;49.320;8.446;2024-01-06T01:05:42;6.05;;;1.00;;
81026;SDS011;70506;49.320;8.446;2024-01-06T01:08:07;1.33;;;0.77;;
81026;SDS011;70506;49.320;8.446;2024-01-06T01:10:32;4.07;;;1.20;;
81026;SDS011;70506;49.320;8.446;2024-01-06T01:12:58;1.57;;;1.00;;
81026;SDS011;70506;49.320;8.446;2024-01-06T01:15:23;3.00;;;0.70;;
81026;SDS011;70506;49.320;8.446;2024-01-06T01:17:48;4.33;;;1.10;;
81026;SDS011;70506;49.320;8.446;2024-01-06T01:20:14;3.93;;;1.30;;
81026;SDS011;70506;49.320;8.446;2024-01-06T01:22:39;2.90;;;0.80;;
81026;SDS011;70506;49.320;8.446;2024-01-06T01:25:04;2.10;;;0.90;;
81026;SDS011;70506;49.320;8.446;2024-01-06T01:27:32;3.50;;;0.98;;
81026;SDS011;70506;49.320;8.446;2024-01-06T01:29:58;3.10;;;1.02;;
81026;SDS011;70506;49.320;8.446;2024-01-06T01:32:24;3.25;;;0.90;;
81026;SDS011;70506;49.320;8.446;2024-01-06T01:34:49;2.60;;;1.20;;
81026;SDS011;70506;49.320;8.446;2024-01-06T01:37:15;5.27;;;1.10;;
81026;SDS011;70506;49.320;8.446;2024-01-06T01:39:40;3.63;;;1.00;;
81026;SDS011;70506;49.320;8.446;2024-01-06T01:42:07;1.65;;;1.10;;
81026;SDS011;70506;49.320;8.446;2024-01-06T01:44:32;1.37;;;0.77;;
81026;SDS011;70506;49.320;8.446;2024-01-06T01:46:57;1.50;;;1.23;;
81026;SDS011;70506;49.320;8.446;2024-01-06T01:49:23;2.13;;;1.05;;
81026;SDS011;70506;49.320;8.446;2024-01-06T01:51:49;1.30;;;0.80;;
81026;SDS011;70506;49.320;8.446;2024-01-06T01:54:14;4.30;;;0.90;;
81026;SDS011;70506;49.320;8.446;2024-01-06T01:56:40;2.25;;;0.90;;
81026;SDS011;70506;49.320;8.446;2024-01-06T01:59:10;1.88;;;1.30;;
81026;SDS011;70506;49.320;8.446;2024-01-06T02:01:37;1.08;;;0.75;;
81026;SDS011;70506;49.320;8.446;2024-01-06T02:04:02;1.13;;;0.82;;
81026;SDS011;70506;49.320;8.446;2024-01-06T02:06:28;5.68;;;1.20;;
81026;SDS011;70506;49.320;8.446;2024-01-06T02:08:53;2.20;;;1.00;;
81026;SDS011;70506;49.320;8.446;2024-01-06T02:11:19;7.30;;;0.88;;
81026;SDS011;70506;49.320;8.446;2024-01-06T02:13:44;1.10;;;0.70;;
81026;SDS011;70506;49.320;8.446;2024-01-06T02:16:09;1.43;;;0.77;;
81026;SDS011;70506;49.320;8.446;2024-01-06T02:18:35;1.13;;;0.80;;
81026;SDS011;70506;49.320;8.446;2024-01-06T02:21:01;1.08;;;0.57;;
81026;SDS011;70506;49.320;8.446;2024-01-06T02:23:27;2.35;;;1.17;;
81026;SDS011;70506;49.320;8.446;2024-01-06T02:25:52;5.60;;;0.90;;
81026;SDS011;70506;49.320;8.446;2024-01-06T02:28:18;3.40;;;0.73;;
81026;SDS011;70506;49.320;8.446;2024-01-06T02:30:43;2.93;;;1.13;;
81026;SDS011;70506;49.320;8.446;2024-01-06T02:33:08;2.67;;;1.10;;
81026;SDS011;70506;49.320;8.446;2024-01-06T02:35:34;4.35;;;1.40;;
81026;SDS011;70506;49.320;8.446;2024-01-06T02:38:00;1.73;;;0.60;;
81026;SDS011;70506;49.320;8.446;2024-01-06T02:40:25;3.85;;;1.00;;
81026;SDS011;70506;49.320;8.446;2024-01-06T02:42:51;4.75;;;0.70;;
81026;SDS011;70506;49.320;8.446;2024-01-06T02:45:16;1.23;;;0.77;;
81026;SDS011;70506;49.320;8.446;2024-01-06T02:47:41;3.17;;;0.87;;
81026;SDS011;70506;49.320;8.446;2024-01-06T02:50:07;3.47;;;0.93;;
81026;SDS011;70506;49.320;8.446;2024-01-06T02:52:32;2.83;;;1.80;;
81026;SDS011;70506;49.320;8.446;2024-01-06T02:54:58;3.33;;;1.40;;
81026;SDS011;70506;49.320;8.446;2024-01-06T02:57:23;1.70;;;1.05;;
81026;SDS011;70506;49.320;8.446;2024-01-06T02:59:49;4.10;;;0.90;;
81026;SDS011;70506;49.320;8.446;2024-01-06T03:02:14;4.27;;;0.60;;
81026;SDS011;70506;49.320;8.446;2024-01-06T03:04:39;3.47;;;0.90;;
81026;SDS011;70506;49.320;8.446;2024-01-06T03:07:05;2.37;;;1.07;;
81026;SDS011;70506;49.320;8.446;2024-01-06T03:09:30;2.50;;;0.85;;
81026;SDS011;70506;49.320;8.446;2024-01-06T03:11:55;8.70;;;0.93;;
81026;SDS011;70506;49.320;8.446;2024-01-06T03:14:21;2.63;;;0.82;;
81026;SDS011;70506;49.320;8.446;2024-01-06T03:16:46;3.60;;;0.87;;
81026;SDS011;70506;49.320;8.446;2024-01-06T03:19:11;5.33;;;0.90;;
81026;SDS011;70506;49.320;8.446;2024-01-06T03:21:37;1.98;;;1.23;;
81026;SDS011;70506;49.320;8.446;2024-01-06T03:24:02;1.10;;;0.70;;
81026;SDS011;70506;49.320;8.446;2024-01-06T03:26:29;0.65;;;0.65;;
81026;SDS011;70506;49.320;8.446;2024-01-06T03:28:54;2.73;;;0.70;;
81026;SDS011;70506;49.320;8.446;2024-01-06T03:31:19;4.78;;;1.45;;
81026;SDS011;70506;49.320;8.446;2024-01-06T03:33:47;2.42;;;0.98;;
81026;SDS011;70506;49.320;8.446;2024-01-06T03:36:12;3.55;;;1.40;;
81026;SDS011;70506;49.320;8.446;2024-01-06T03:38:38;7.72;;;1.10;;
81026;SDS011;70506;49.320;8.446;2024-01-06T03:41:03;1.13;;;0.70;;
81026;SDS011;70506;49.320;8.446;2024-01-06T03:43:28;1.90;;;0.87;;
81026;SDS011;70506;49.320;8.446;2024-01-06T03:45:54;3.10;;;1.43;;
81026;SDS011;70506;49.320;8.446;2024-01-06T03:48:20;2.15;;;1.27;;
81026;SDS011;70506;49.320;8.446;2024-01-06T03:50:45;4.17;;;0.90;;
81026;SDS011;70506;49.320;8.446;2024-01-06T03:53:11;3.07;;;1.33;;
81026;SDS011;70506;49.320;8.446;2024-01-06T03:55:36;10.17;;;1.40;;
81026;SDS011;70506;49.320;8.446;2024-01-06T03:58:01;2.80;;;0.90;;
81026;SDS011;70506;49.320;8.446;2024-01-06T04:00:27;3.17;;;1.10;;
81026;SDS011;70506;49.320;8.446;2024-01-06T04:02:52;6.63;;;1.60;;
81026;SDS011;70506;49.320;8.446;2024-01-06T04:05:17;1.93;;;0.93;;
81026;SDS011;70506;49.320;8.446;2024-01-06T04:07:43;3.03;;;1.30;;
81026;SDS011;70506;49.320;8.446;2024-01-06T04:10:08;4.20;;;0.95;;
81026;SDS011;70506;49.320;8.446;2024-01-06T04:12:34;4.00;;;1.30;;
81026;SDS011;70506;49.320;8.446;2024-01-06T04:14:59;1.47;;;1.03;;
81026;SDS011;70506;49.320;8.446;2024-01-06T04:17:24;7.67;;;1.50;;
81026;SDS011;70506;49.320;8.446;2024-01-06T04:19:51;1.48;;;0.77;;
81026;SDS011;70506;49.320;8.446;2024-01-06T04:22:17;1.25;;;0.90;;
81026;SDS011;70506;49.320;8.446;2024-01-06T04:24:42;6.47;;;1.27;;
81026;SDS011;70506;49.320;8.446;2024-01-06T04:27:07;1.60;;;0.83;;
81026;SDS011;70506;49.320;8.446;2024-01-06T04:29:34;1.15;;;0.70;;
81026;SDS011;70506;49.320;8.446;2024-01-06T04:32:00;1.80;;;0.93;;
81026;SDS011;70506;49.320;8.446;2024-01-06T04:34:25;1.50;;;0.80;;
81026;SDS011;70506;49.320;8.446;2024-01-06T04:36:50;3.60;;;1.08;;
81026;SDS011;70506;49.320;8.446;2024-01-06T04:39:15;1.67;;;0.93;;
81026;SDS011;70506;49.320;8.446;2024-01-06T04:41:41;3.27;;;0.93;;
81026;SDS011;70506;49.320;8.446;2024-01-06T04:44:06;5.20;;;1.25;;
81026;SDS011;70506;49.320;8.446;2024-01-06T04:46:32;1.25;;;0.95;;
81026;SDS011;70506;49.320;8.446;2024-01-06T04:48:57;1.60;;;0.98;;
81026;SDS011;70506;49.320;8.446;2024-01-06T04:51:23;3.43;;;1.10;;
81026;SDS011;70506;49.320;8.446;2024-01-06T04:53:48;1.48;;;0.68;;
81026;SDS011;70506;49.320;8.446;2024-01-06T04:56:13;3.47;;;1.47;;
81026;SDS011;70506;49.320;8.446;2024-01-06T04:58:39;1.92;;;1.05;;
81026;SDS011;70506;49.320;8.446;2024-01-06T05:01:04;3.33;;;1.17;;
81026;SDS011;70506;49.320;8.446;2024-01-06T05:03:30;2.00;;;1.00;;
81026;SDS011;70506;49.320;8.446;2024-01-06T05:05:55;3.20;;;1.17;;
81026;SDS011;70506;49.320;8.446;2024-01-06T05:08:20;1.40;;;0.73;;
81026;SDS011;70506;49.320;8.446;2024-01-06T05:10:47;2.28;;;1.00;;
81026;SDS011;70506;49.320;8.446;2024-01-06T05:13:13;4.07;;;0.93;;
81026;SDS011;70506;49.320;8.446;2024-01-06T05:15:39;4.43;;;1.05;;
81026;SDS011;70506;49.320;8.446;2024-01-06T05:18:04;2.00;;;1.03;;
81026;SDS011;70506;49.320;8.446;2024-01-06T05:20:30;0.70;;;0.50;;
81026;SDS011;70506;49.320;8.446;2024-01-06T05:22:55;1.33;;;0.60;;
81026;SDS011;70506;49.320;8.446;2024-01-06T05:25:20;2.53;;;1.17;;
81026;SDS011;70506;49.320;8.446;2024-01-06T05:27:46;1.80;;;1.00;;
81026;SDS011;70506;49.320;8.446;2024-01-06T05:30:11;5.00;;;0.97;;
81026;SDS011;70506;49.320;8.446;2024-01-06T05:32:37;4.00;;;1.20;;
81026;SDS011;70506;49.320;8.446;2024-01-06T05:35:03;3.72;;;1.40;;
81026;SDS011;70506;49.320;8.446;2024-01-06T05:37:28;6.03;;;1.15;;
81026;SDS011;70506;49.320;8.446;2024-01-06T05:39:54;1.97;;;0.97;;
81026;SDS011;70506;49.320;8.446;2024-01-06T05:42:19;3.65;;;0.80;;
81026;SDS011;70506;49.320;8.446;2024-01-06T05:44:45;2.78;;;1.10;;
81026;SDS011;70506;49.320;8.446;2024-01-06T05:47:10;1.43;;;0.80;;
81026;SDS011;70506;49.320;8.446;2024-01-06T05:49:35;1.70;;;1.00;;
81026;SDS011;70506;49.320;8.446;2024-01-06T05:52:00;4.87;;;1.17;;
81026;SDS011;70506;49.320;8.446;2024-01-06T05:54:26;2.87;;;0.90;;
81026;SDS011;70506;49.320;8.446;2024-01-06T05:56:51;2.93;;;1.03;;
81026;SDS011;70506;49.320;8.446;2024-01-06T05:59:17;3.28;;;1.17;;
81026;SDS011;70506;49.320;8.446;2024-01-06T06:01:42;3.78;;;0.77;;
81026;SDS011;70506;49.320;8.446;2024-01-06T06:04:08;1.17;;;0.82;;
81026;SDS011;70506;49.320;8.446;2024-01-06T06:06:34;1.70;;;1.00;;
81026;SDS011;70506;49.320;8.446;2024-01-06T06:08:59;1.70;;;1.07;;
81026;SDS011;70506;49.320;8.446;2024-01-06T06:11:24;2.10;;;1.07;;
81026;SDS011;70506;49.320;8.446;2024-01-06T06:13:50;1.38;;;0.70;;
81026;SDS011;70506;49.320;8.446;2024-01-06T06:16:15;2.15;;;1.23;;
81026;SDS011;70506;49.320;8.446;2024-01-06T06:18:40;3.73;;;1.10;;
81026;SDS011;70506;49.320;8.446;2024-01-06T06:21:06;2.13;;;1.03;;
81026;SDS011;70506;49.320;8.446;2024-01-06T06:23:32;1.60;;;1.08;;
81026;SDS011;70506;49.320;8.446;2024-01-06T06:25:58;5.45;;;0.88;;
81026;SDS011;70506;49.320;8.446;2024-01-06T06:28:24;2.22;;;1.20;;
81026;SDS011;70506;49.320;8.446;2024-01-06T06:30:50;1.38;;;0.95;;
81026;SDS011;70506;49.320;8.446;2024-01-06T06:33:15;1.85;;;1.13;;
81026;SDS011;70506;49.320;8.446;2024-01-06T06:35:41;1.95;;;0.75;;
81026;SDS011;70506;49.320;8.446;2024-01-06T06:38:06;2.37;;;1.00;;
81026;SDS011;70506;49.320;8.446;2024-01-06T06:40:31;4.65;;;1.10;;
81026;SDS011;70506;49.320;8.446;2024-01-06T06:42:57;4.47;;;1.37;;
81026;SDS011;70506;49.320;8.446;2024-01-06T06:45:22;2.75;;;1.00;;
81026;SDS011;70506;49.320;8.446;2024-01-06T06:47:50;3.13;;;1.13;;
81026;SDS011;70506;49.320;8.446;2024-01-06T06:50:16;3.13;;;1.00;;
81026;SDS011;70506;49.320;8.446;2024-01-06T06:52:42;3.83;;;1.00;;
81026;SDS011;70506;49.320;8.446;2024-01-06T06:55:07;5.05;;;1.20;;
81026;SDS011;70506;49.320;8.446;2024-01-06T06:57:33;6.63;;;0.98;;
81026;SDS011;70506;49.320;8.446;2024-01-06T06:59:58;1.48;;;0.80;;
81026;SDS011;70506;49.320;8.446;2024-01-06T07:02:25;2.97;;;1.15;;
81026;SDS011;70506;49.320;8.446;2024-01-06T07:04:50;3.00;;;1.17;;
81026;SDS011;70506;49.320;8.446;2024-01-06T07:07:16;1.90;;;1.00;;
81026;SDS011;70506;49.320;8.446;2024-01-06T07:09:41;3.87;;;1.50;;
81026;SDS011;70506;49.320;8.446;2024-01-06T07:12:06;2.13;;;1.00;;
81026;SDS011;70506;49.320;8.446;2024-01-06T07:14:32;2.70;;;1.08;;
81026;SDS011;70506;49.320;8.446;2024-01-06T07:16:58;3.95;;;1.10;;
81026;SDS011;70506;49.320;8.446;2024-01-06T07:19:24;1.42;;;0.95;;
81026;SDS011;70506;49.320;8.446;2024-01-06T07:21:49;3.03;;;1.13;;
81026;SDS011;70506;49.320;8.446;2024-01-06T07:24:14;2.33;;;1.10;;
81026;SDS011;70506;49.320;8.446;2024-01-06T07:26:39;3.17;;;1.43;;
81026;SDS011;70506;49.320;8.446;2024-01-06T07:29:05;3.77;;;1.07;;
81026;SDS011;70506;49.320;8.446;2024-01-06T07:31:31;2.35;;;1.08;;
81026;SDS011;70506;49.320;8.446;2024-01-06T07:33:58;1.88;;;1.10;;
81026;SDS011;70506;49.320;8.446;2024-01-06T07:36:23;2.25;;;1.27;;
81026;SDS011;70506;49.320;8.446;2024-01-06T07:38:48;1.93;;;1.00;;
81026;SDS011;70506;49.320;8.446;2024-01-06T07:41:14;4.00;;;1.53;;
81026;SDS011;70506;49.320;8.446;2024-01-06T07:43:39;4.87;;;1.43;;
81026;SDS011;70506;49.320;8.446;2024-01-06T07:46:04;1.90;;;1.00;;
81026;SDS011;70506;49.320;8.446;2024-01-06T07:48:31;2.95;;;1.20;;
81026;SDS011;70506;49.320;8.446;2024-01-06T07:50:57;2.13;;;1.07;;
81026;SDS011;70506;49.320;8.446;2024-01-06T07:53:22;4.00;;;1.10;;
81026;SDS011;70506;49.320;8.446;2024-01-06T07:55:47;2.00;;;1.10;;
81026;SDS011;70506;49.320;8.446;2024-01-06T07:58:13;1.37;;;1.13;;
81026;SDS011;70506;49.320;8.446;2024-01-06T08:00:38;1.77;;;1.23;;
81026;SDS011;70506;49.320;8.446;2024-01-06T08:03:03;1.20;;;0.90;;
81026;SDS011;70506;49.320;8.446;2024-01-06T08:05:31;1.67;;;1.13;;
81026;SDS011;70506;49.320;8.446;2024-01-06T08:07:56;1.00;;;0.90;;
81026;SDS011;70506;49.320;8.446;2024-01-06T08:10:21;2.67;;;1.27;;
81026;SDS011;70506;49.320;8.446;2024-01-06T08:12:47;2.00;;;1.05;;
81026;SDS011;70506;49.320;8.446;2024-01-06T08:15:13;2.28;;;1.27;;
81026;SDS011;70506;49.320;8.446;2024-01-06T08:17:38;2.65;;;1.30;;
81026;SDS011;70506;49.320;8.446;2024-01-06T08:20:05;2.45;;;1.20;;
81026;SDS011;70506;49.320;8.446;2024-01-06T08:22:31;2.70;;;1.17;;
81026;SDS011;70506;49.320;8.446;2024-01-06T08:24:57;1.67;;;1.10;;
81026;SDS011;70506;49.320;8.446;2024-01-06T08:27:22;3.73;;;1.63;;
81026;SDS011;70506;49.320;8.446;2024-01-06T08:29:48;2.92;;;1.20;;
81026;SDS011;70506;49.320;8.446;2024-01-06T08:32:14;3.65;;;1.67;;
81026;SDS011;70506;49.320;8.446;2024-01-06T08:34:41;4.03;;;1.63;;
81026;SDS011;70506;49.320;8.446;2024-01-06T08:37:06;2.17;;;1.20;;
81026;SDS011;70506;49.320;8.446;2024-01-06T08:39:32;3.75;;;1.50;;
81026;SDS011;70506;49.320;8.446;2024-01-06T08:41:57;6.17;;;1.27;;
81026;SDS011;70506;49.320;8.446;2024-01-06T08:44:22;1.90;;;1.00;;
81026;SDS011;70506;49.320;8.446;2024-01-06T08:46:47;3.40;;;1.10;;
81026;SDS011;70506;49.320;8.446;2024-01-06T08:49:13;3.93;;;1.40;;
81026;SDS011;70506;49.320;8.446;2024-01-06T08:51:38;2.23;;;1.20;;
81026;SDS011;70506;49.320;8.446;2024-01-06T08:54:03;6.43;;;1.53;;
81026;SDS011;70506;49.320;8.446;2024-01-06T08:56:30;8.23;;;1.52;;
81026;SDS011;70506;49.320;8.446;2024-01-06T08:58:56;3.05;;;1.48;;
81026;SDS011;70506;49.320;8.446;2024-01-06T09:01:22;5.28;;;1.77;;
81026;SDS011;70506;49.320;8.446;2024-01-06T09:03:47;2.45;;;1.33;;
81026;SDS011;70506;49.320;8.446;2024-01-06T09:06:12;15.40;;;1.57;;
81026;SDS011;70506;49.320;8.446;2024-01-06T09:08:38;2.83;;;1.83;;
81026;SDS011;70506;49.320;8.446;2024-01-06T09:11:03;3.77;;;1.93;;
81026;SDS011;70506;49.320;8.446;2024-01-06T09:13:29;3.00;;;1.88;;
81026;SDS011;70506;49.320;8.446;2024-01-06T09:15:54;3.13;;;1.37;;
81026;SDS011;70506;49.320;8.446;2024-01-06T09:18:20;3.53;;;1.60;;
81026;SDS011;70506;49.320;8.446;2024-01-06T09:20:45;13.30;;;2.22;;
81026;SDS011;70506;49.320;8.446;2024-01-06T09:23:13;2.83;;;1.77;;
81026;SDS011;70506;49.320;8.446;2024-01-06T09:25:39;3.65;;;1.77;;
81026;SDS011;70506;49.320;8.446;2024-01-06T09:28:05;3.33;;;1.70;;
81026;SDS011;70506;49.320;8.446;2024-01-06T09:30:30;5.88;;;1.85;;
81026;SDS011;70506;49.320;8.446;2024-01-06T09:32:55;2.70;;;1.70;;
81026;SDS011;70506;49.320;8.446;2024-01-06T09:35:21;4.23;;;1.83;;
81026;SDS011;70506;49.320;8.446;2024-01-06T09:37:46;2.63;;;1.73;;
81026;SDS011;70506;49.320;8.446;2024-01-06T09:40:12;5.67;;;2.03;;
81026;SDS011;70506;49.320;8.446;2024-01-06T09:42:40;6.53;;;2.22;;
81026;SDS011;70506;49.320;8.446;2024-01-06T09:45:06;5.15;;;1.95;;
81026;SDS011;70506;49.320;8.446;2024-01-06T09:49:58;4.75;;;2.20;;
81026;SDS011;70506;49.320;8.446;2024-01-06T09:52:26;3.03;;;1.63;;
81026;SDS011;70506;49.320;8.446;2024-01-06T09:54:52;6.47;;;2.42;;
81026;SDS011;70506;49.320;8.446;2024-01-06T09:57:20;8.30;;;1.48;;
81026;SDS011;70506;49.320;8.446;2024-01-06T09:59:47;5.80;;;1.90;;
81026;SDS011;70506;49.320;8.446;2024-01-06T10:02:12;3.30;;;1.80;;
81026;SDS011;70506;49.320;8.446;2024-01-06T10:04:40;4.72;;;2.10;;
81026;SDS011;70506;49.320;8.446;2024-01-06T10:07:06;3.88;;;1.90;;
81026;SDS011;70506;49.320;8.446;2024-01-06T10:09:31;5.40;;;1.80;;
81026;SDS011;70506;49.320;8.446;2024-01-06T10:11:57;4.35;;;2.20;;
81026;SDS011;70506;49.320;8.446;2024-01-06T10:14:24;4.40;;;2.33;;
81026;SDS011;70506;49.320;8.446;2024-01-06T10:16:49;6.03;;;2.47;;
81026;SDS011;70506;49.320;8.446;2024-01-06T10:19:16;4.15;;;2.45;;
81026;SDS011;70506;49.320;8.446;2024-01-06T10:21:41;3.87;;;2.30;;
81026;SDS011;70506;49.320;8.446;2024-01-06T10:24:09;3.20;;;1.47;;
81026;SDS011;70506;49.320;8.446;2024-01-06T10:26:35;5.85;;;2.22;;
81026;SDS011;70506;49.320;8.446;2024-01-06T10:29:00;4.38;;;2.30;;
81026;SDS011;70506;49.320;8.446;2024-01-06T10:31:26;4.47;;;2.20;;
81026;SDS011;70506;49.320;8.446;2024-01-06T10:33:51;5.30;;;1.75;;
81026;SDS011;70506;49.320;8.446;2024-01-06T10:36:17;3.90;;;1.80;;
81026;SDS011;70506;49.320;8.446;2024-01-06T10:38:44;4.65;;;2.08;;
81026;SDS011;70506;49.320;8.446;2024-01-06T10:41:09;5.03;;;2.20;;
81026;SDS011;70506;49.320;8.446;2024-01-06T10:43:37;5.15;;;2.45;;
81026;SDS011;70506;49.320;8.446;2024-01-06T10:46:06;5.20;;;2.30;;
81026;SDS011;70506;49.320;8.446;2024-01-06T10:48:35;6.22;;;2.80;;
81026;SDS011;70506;49.320;8.446;2024-01-06T10:51:03;4.70;;;1.80;;
81026;SDS011;70506;49.320;8.446;2024-01-06T10:53:32;6.30;;;1.83;;
81026;SDS011;70506;49.320;8.446;2024-01-06T10:55:58;4.07;;;2.22;;
81026;SDS011;70506;49.320;8.446;2024-01-06T10:58:26;8.32;;;2.47;;
81026;SDS011;70506;49.320;8.446;2024-01-06T11:00:52;7.03;;;2.20;;
81026;SDS011;70506;49.320;8.446;2024-01-06T11:03:17;6.20;;;2.10;;
81026;SDS011;70506;49.320;8.446;2024-01-06T11:05:43;5.97;;;2.15;;
81026;SDS011;70506;49.320;8.446;2024-01-06T11:08:09;2.75;;;1.63;;
81026;SDS011;70506;49.320;8.446;2024-01-06T11:10:35;6.32;;;2.30;;
81026;SDS011;70506;49.320;8.446;2024-01-06T11:13:09;3.33;;;1.92;;
81026;SDS011;70506;49.320;8.446;2024-01-06T11:15:44;3.20;;;1.85;;
81026;SDS011;70506;49.320;8.446;2024-01-06T11:23:43;3.53;;;2.08;;
81026;SDS011;70506;49.320;8.446;2024-01-06T11:26:09;3.17;;;1.73;;
81026;SDS011;70506;49.320;8.446;2024-01-06T11:28:47;2.80;;;1.73;;
81026;SDS011;70506;49.320;8.446;2024-01-06T11:31:12;5.45;;;1.85;;
81026;SDS011;70506;49.320;8.446;2024-01-06T11:33:44;3.67;;;1.92;;
81026;SDS011;70506;49.320;8.446;2024-01-06T11:36:14;5.80;;;1.92;;
81026;SDS011;70506;49.320;8.446;2024-01-06T11:38:40;5.07;;;1.88;;
81026;SDS011;70506;49.320;8.446;2024-01-06T11:41:08;3.38;;;1.73;;
81026;SDS011;70506;49.320;8.446;2024-01-06T11:43:37;3.08;;;2.05;;
81026;SDS011;70506;49.320;8.446;2024-01-06T11:46:02;3.47;;;1.70;;
81026;SDS011;70506;49.320;8.446;2024-01-06T11:48:31;3.15;;;1.33;;
81026;SDS011;70506;49.320;8.446;2024-01-06T11:50:58;4.55;;;1.70;;
81026;SDS011;70506;49.320;8.446;2024-01-06T11:53:23;2.80;;;1.55;;
81026;SDS011;70506;49.320;8.446;2024-01-06T11:55:51;2.95;;;1.55;;
81026;SDS011;70506;49.320;8.446;2024-01-06T11:58:17;3.10;;;1.53;;
81026;SDS011;70506;49.320;8.446;2024-01-06T12:00:42;3.47;;;1.23;;
81026;SDS011;70506;49.320;8.446;2024-01-06T12:03:08;3.08;;;1.77;;
81026;SDS011;70506;49.320;8.446;2024-01-06T12:05:33;2.72;;;1.75;;
81026;SDS011;70506;49.320;8.446;2024-01-06T12:07:59;5.67;;;1.73;;
81026;SDS011;70506;49.320;8.446;2024-01-06T12:10:27;3.92;;;1.83;;
81026;SDS011;70506;49.320;8.446;2024-01-06T12:15:29;2.83;;;1.48;;
81026;SDS011;70506;49.320;8.446;2024-01-06T12:17:56;6.35;;;2.30;;
81026;SDS011;70506;49.320;8.446;2024-01-06T12:20:22;6.28;;;2.13;;
81026;SDS011;70506;49.320;8.446;2024-01-06T12:22:48;3.35;;;2.03;;
81026;SDS011;70506;49.320;8.446;2024-01-06T12:27:43;7.18;;;1.50;;
81026;SDS011;70506;49.320;8.446;2024-01-06T12:30:16;2.85;;;1.65;;
81026;SDS011;70506;49.320;8.446;2024-01-06T12:32:44;4.60;;;1.98;;
81026;SDS011;70506;49.320;8.446;2024-01-06T12:35:10;4.32;;;1.73;;
81026;SDS011;70506;49.320;8.446;2024-01-06T12:37:36;6.38;;;2.03;;
81026;SDS011;70506;49.320;8.446;2024-01-06T12:40:02;3.95;;;1.90;;
81026;SDS011;70506;49.320;8.446;2024-01-06T12:42:28;3.03;;;1.88;;
81026;SDS011;70506;49.320;8.446;2024-01-06T12:44:53;4.70;;;1.57;;
81026;SDS011;70506;49.320;8.446;2024-01-06T12:47:18;3.60;;;1.80;;
81026;SDS011;70506;49.320;8.446;2024-01-06T12:49:44;3.25;;;2.20;;
81026;SDS011;70506;49.320;8.446;2024-01-06T12:52:09;5.20;;;2.20;;
81026;SDS011;70506;49.320;8.446;2024-01-06T12:54:34;3.13;;;1.92;;
81026;SDS011;70506;49.320;8.446;2024-01-06T12:57:00;4.68;;;2.38;;
81026;SDS011;70506;49.320;8.446;2024-01-06T12:59:25;3.33;;;1.70;;
81026;SDS011;70506;49.320;8.446;2024-01-06T13:01:50;6.43;;;1.90;;
81026;SDS011;70506;49.320;8.446;2024-01-06T13:04:16;4.47;;;2.30;;
81026;SDS011;70506;49.320;8.446;2024-01-06T13:06:42;5.05;;;2.35;;
81026;SDS011;70506;49.320;8.446;2024-01-06T13:09:07;6.03;;;2.47;;
81026;SDS011;70506;49.320;8.446;2024-01-06T13:11:34;6.53;;;2.10;;
81026;SDS011;70506;49.320;8.446;2024-01-06T13:14:00;3.63;;;1.77;;
81026;SDS011;70506;49.320;8.446;2024-01-06T13:16:26;3.03;;;2.00;;
81026;SDS011;70506;49.320;8.446;2024-01-06T13:18:52;5.23;;;2.30;;
81026;SDS011;70506;49.320;8.446;2024-01-06T13:21:17;4.00;;;1.90;;
81026;SDS011;70506;49.320;8.446;2024-01-06T13:23:43;3.83;;;2.15;;
81026;SDS011;70506;49.320;8.446;2024-01-06T13:26:08;5.43;;;2.13;;
81026;SDS011;70506;49.320;8.446;2024-01-06T13:28:33;4.13;;;2.30;;
81026;SDS011;70506;49.320;8.446;2024-01-06T13:30:59;5.50;;;2.53;;
81026;SDS011;70506;49.320;8.446;2024-01-06T13:33:24;5.27;;;2.60;;
81026;SDS011;70506;49.320;8.446;2024-01-06T13:35:49;6.53;;;2.28;;
81026;SDS011;70506;49.320;8.446;2024-01-06T13:38:15;3.75;;;1.90;;
81026;SDS011;70506;49.320;8.446;2024-01-06T13:40:41;6.45;;;2.50;;
81026;SDS011;70506;49.320;8.446;2024-01-06T13:43:06;3.55;;;1.98;;
81026;SDS011;70506;49.320;8.446;2024-01-06T13:45:34;4.40;;;2.08;;
81026;SDS011;70506;49.320;8.446;2024-01-06T13:47:59;4.40;;;2.15;;
81026;SDS011;70506;49.320;8.446;2024-01-06T13:50:24;4.97;;;2.50;;
81026;SDS011;70506;49.320;8.446;2024-01-06T13:52:50;3.30;;;2.30;;
81026;SDS011;70506;49.320;8.446;2024-01-06T13:55:15;4.95;;;2.22;;
81026;SDS011;70506;49.320;8.446;2024-01-06T13:57:41;3.75;;;2.40;;
81026;SDS011;70506;49.320;8.446;2024-01-06T14:00:08;4.90;;;2.58;;
81026;SDS011;70506;49.320;8.446;2024-01-06T14:02:34;8.95;;;2.28;;
81026;SDS011;70506;49.320;8.446;2024-01-06T14:04:59;4.97;;;2.60;;
81026;SDS011;70506;49.320;8.446;2024-01-06T14:07:25;5.30;;;2.53;;
81026;SDS011;70506;49.320;8.446;2024-01-06T14:09:51;4.10;;;2.35;;
81026;SDS011;70506;49.320;8.446;2024-01-06T14:14:42;4.60;;;2.30;;
81026;SDS011;70506;49.320;8.446;2024-01-06T14:17:08;5.20;;;2.03;;
81026;SDS011;70506;49.320;8.446;2024-01-06T14:19:33;5.32;;;2.45;;
81026;SDS011;70506;49.320;8.446;2024-01-06T14:21:58;4.15;;;2.35;;
81026;SDS011;70506;49.320;8.446;2024-01-06T14:24:25;6.07;;;2.25;;
81026;SDS011;70506;49.320;8.446;2024-01-06T14:26:53;5.50;;;2.33;;
81026;SDS011;70506;49.320;8.446;2024-01-06T14:29:20;5.03;;;2.53;;
81026;SDS011;70506;49.320;8.446;2024-01-06T14:31:45;3.90;;;1.98;;
81026;SDS011;70506;49.320;8.446;2024-01-06T14:34:11;9.30;;;2.50;;
81026;SDS011;70506;49.320;8.446;2024-01-06T14:36:36;4.63;;;2.53;;
81026;SDS011;70506;49.320;8.446;2024-01-06T14:39:01;6.43;;;3.17;;
81026;SDS011;70506;49.320;8.446;2024-01-06T14:41:29;3.75;;;2.53;;
81026;SDS011;70506;49.320;8.446;2024-01-06T14:43:54;8.05;;;3.00;;
81026;SDS011;70506;49.320;8.446;2024-01-06T14:46:19;4.90;;;2.43;;
81026;SDS011;70506;49.320;8.446;2024-01-06T14:48:46;3.97;;;2.30;;
81026;SDS011;70506;49.320;8.446;2024-01-06T14:51:11;3.83;;;2.00;;
81026;SDS011;70506;49.320;8.446;2024-01-06T14:53:36;4.17;;;2.47;;
81026;SDS011;70506;49.320;8.446;2024-01-06T14:56:02;5.65;;;2.35;;